BIFL weather

Flúðir Airport
Flúðir, Southern Region, Iceland

Public forecast

Using degrees Celsius for public forecast. Weather courtesy of forecast.io.

METAR (pilot weather report)

Closest report is Reykjavik Airport, 42.3 nm (78.3 km) W. Retrieved 2019/04/22 03:00 UTC (47 minutes ago):

BIRK 220300Z 08003KT 350V110 CAVOK 02/M02 Q1000

TAF (pilot weather forecast)

Closest forecast is Reykjavik Airport, 42.3 nm (78.3 km) W. Retrieved 2019/04/22 03:15 UTC (32 minutes ago):

TAF BIRK 220114Z 2203/2303 09008KT 9999 SCT040 TX09/2218Z TN01/2206Z TEMPO 2217/2220 SHRA BKN020CB